sensor_id;sensor_type;location;lat;lon;timestamp;pressure;altitude;pressure_sealevel;temperature;humidity
11678;BME280;5895;41.950;24.372;2023-08-24T00:06:01;87307.56;;;19.90;59.39
11678;BME280;5895;41.950;24.372;2023-08-24T00:08:29;87301.56;;;19.79;59.07
11678;BME280;5895;41.950;24.372;2023-08-24T00:10:56;87305.25;;;19.68;59.08
11678;BME280;5895;41.950;24.372;2023-08-24T00:13:23;87306.84;;;19.69;58.79
11678;BME280;5895;41.950;24.372;2023-08-24T00:15:50;87300.00;;;19.68;59.17
11678;BME280;5895;41.950;24.372;2023-08-24T00:18:19;87295.00;;;19.67;58.86
11678;BME280;5895;41.950;24.372;2023-08-24T00:20:47;87295.28;;;19.65;58.66
11678;BME280;5895;41.950;24.372;2023-08-24T00:23:16;87296.84;;;19.66;59.15
11678;BME280;5895;41.950;24.372;2023-08-24T00:25:43;87299.22;;;19.68;58.84
11678;BME280;5895;41.950;24.372;2023-08-24T00:28:11;87299.75;;;19.65;59.07
11678;BME280;5895;41.950;24.372;2023-08-24T00:30:38;87302.13;;;19.66;59.00
11678;BME280;5895;41.950;24.372;2023-08-24T00:33:05;87299.22;;;19.68;58.90
11678;BME280;5895;41.950;24.372;2023-08-24T00:35:32;87295.00;;;19.67;58.63
11678;BME280;5895;41.950;24.372;2023-08-24T00:37:59;87299.75;;;19.65;58.60
11678;BME280;5895;41.950;24.372;2023-08-24T00:40:28;87293.72;;;19.64;58.92
11678;BME280;5895;41.950;24.372;2023-08-24T00:42:55;87289.75;;;19.62;59.02
11678;BME280;5895;41.950;24.372;2023-08-24T00:45:22;87288.16;;;19.55;59.07
11678;BME280;5895;41.950;24.372;2023-08-24T00:47:49;87286.59;;;19.54;58.89
11678;BME280;5895;41.950;24.372;2023-08-24T00:50:18;87283.94;;;19.54;59.23
11678;BME280;5895;41.950;24.372;2023-08-24T00:52:46;87285.53;;;19.50;59.36
11678;BME280;5895;41.950;24.372;2023-08-24T00:55:14;87287.09;;;19.51;59.02
11678;BME280;5895;41.950;24.372;2023-08-24T00:57:44;87282.09;;;19.55;58.73
11678;BME280;5895;41.950;24.372;2023-08-24T01:00:12;87282.63;;;19.57;58.82
11678;BME280;5895;41.950;24.372;2023-08-24T01:02:40;87277.63;;;19.55;58.76
11678;BME280;5895;41.950;24.372;2023-08-24T01:05:07;87271.88;;;19.59;58.62
11678;BME280;5895;41.950;24.372;2023-08-24T01:07:38;87269.47;;;19.57;58.59
11678;BME280;5895;41.950;24.372;2023-08-24T01:10:07;87270.53;;;19.56;59.01
11678;BME280;5895;41.950;24.372;2023-08-24T01:12:45;87269.25;;;19.59;60.98
11678;BME280;5895;41.950;24.372;2023-08-24T01:15:18;87272.09;;;19.57;59.46
11678;BME280;5895;41.950;24.372;2023-08-24T01:17:50;87270.78;;;19.54;60.05
11678;BME280;5895;41.950;24.372;2023-08-24T01:20:17;87272.38;;;19.50;58.84
11678;BME280;5895;41.950;24.372;2023-08-24T01:22:54;87262.41;;;19.47;60.37
11678;BME280;5895;41.950;24.372;2023-08-24T01:25:32;87270.81;;;19.39;61.01
11678;BME280;5895;41.950;24.372;2023-08-24T01:28:04;87271.09;;;19.33;59.90
11678;BME280;5895;41.950;24.372;2023-08-24T01:30:34;87267.69;;;19.27;60.25
11678;BME280;5895;41.950;24.372;2023-08-24T01:33:02;87263.47;;;19.21;59.54
11678;BME280;5895;41.950;24.372;2023-08-24T01:35:30;87266.13;;;19.16;59.42
11678;BME280;5895;41.950;24.372;2023-08-24T01:37:58;87261.13;;;19.14;59.57
11678;BME280;5895;41.950;24.372;2023-08-24T01:40:36;87262.97;;;19.14;63.09
11678;BME280;5895;41.950;24.372;2023-08-24T01:43:09;87258.75;;;19.13;61.27
11678;BME280;5895;41.950;24.372;2023-08-24T01:45:37;87262.97;;;19.14;59.75
11678;BME280;5895;41.950;24.372;2023-08-24T01:48:05;87261.91;;;19.10;60.06
11678;BME280;5895;41.950;24.372;2023-08-24T01:50:33;87261.38;;;19.13;59.96
11678;BME280;5895;41.950;24.372;2023-08-24T01:53:02;87256.13;;;19.13;59.85
11678;BME280;5895;41.950;24.372;2023-08-24T01:55:29;87260.34;;;19.14;59.96
11678;BME280;5895;41.950;24.372;2023-08-24T01:57:56;87252.44;;;19.14;59.66
11678;BME280;5895;41.950;24.372;2023-08-24T02:00:25;87251.91;;;19.12;60.44
11678;BME280;5895;41.950;24.372;2023-08-24T02:02:52;87249.28;;;19.12;59.51
11678;BME280;5895;41.950;24.372;2023-08-24T02:05:19;87251.91;;;19.12;59.38
11678;BME280;5895;41.950;24.372;2023-08-24T02:07:46;87250.34;;;19.16;59.18
11678;BME280;5895;41.950;24.372;2023-08-24T02:10:13;87244.56;;;19.14;59.55
11678;BME280;5895;41.950;24.372;2023-08-24T02:12:41;87243.50;;;19.15;59.65
11678;BME280;5895;41.950;24.372;2023-08-24T02:15:08;87239.31;;;19.14;60.06
11678;BME280;5895;41.950;24.372;2023-08-24T02:17:37;87241.66;;;19.10;59.86
11678;BME280;5895;41.950;24.372;2023-08-24T02:20:05;87241.94;;;19.09;60.25
11678;BME280;5895;41.950;24.372;2023-08-24T02:22:34;87236.13;;;19.07;60.08
11678;BME280;5895;41.950;24.372;2023-08-24T02:25:01;87236.13;;;19.07;60.05
11678;BME280;5895;41.950;24.372;2023-08-24T02:27:30;87236.66;;;19.09;60.33
11678;BME280;5895;41.950;24.372;2023-08-24T02:29:57;87233.25;;;19.08;59.99
11678;BME280;5895;41.950;24.372;2023-08-24T02:32:25;87238.75;;;19.07;60.04
11678;BME280;5895;41.950;24.372;2023-08-24T02:34:54;87239.53;;;19.07;60.27
11678;BME280;5895;41.950;24.372;2023-08-24T02:37:21;87238.25;;;19.05;60.20
11678;BME280;5895;41.950;24.372;2023-08-24T02:39:48;87247.19;;;19.03;60.07
11678;BME280;5895;41.950;24.372;2023-08-24T02:42:15;87244.03;;;19.01;60.47
11678;BME280;5895;41.950;24.372;2023-08-24T02:44:42;87246.66;;;18.96;60.28
11678;BME280;5895;41.950;24.372;2023-08-24T02:47:09;87247.47;;;18.92;60.33
11678;BME280;5895;41.950;24.372;2023-08-24T02:49:37;87249.81;;;18.88;60.65
11678;BME280;5895;41.950;24.372;2023-08-24T02:52:06;87247.72;;;18.85;61.07
11678;BME280;5895;41.950;24.372;2023-08-24T02:54:33;87250.88;;;18.82;60.66
11678;BME280;5895;41.950;24.372;2023-08-24T02:57:00;87247.97;;;18.79;61.08
11678;BME280;5895;41.950;24.372;2023-08-24T02:59:28;87251.94;;;18.76;61.28
11678;BME280;5895;41.950;24.372;2023-08-24T03:01:55;87246.94;;;18.74;60.83
11678;BME280;5895;41.950;24.372;2023-08-24T03:04:23;87248.25;;;18.72;61.23
11678;BME280;5895;41.950;24.372;2023-08-24T03:06:50;87246.16;;;18.69;61.41
11678;BME280;5895;41.950;24.372;2023-08-24T03:09:18;87245.34;;;18.68;61.80
11678;BME280;5895;41.950;24.372;2023-08-24T03:11:45;87251.09;;;18.65;61.07
11678;BME280;5895;41.950;24.372;2023-08-24T03:14:12;87250.84;;;18.67;61.71
11678;BME280;5895;41.950;24.372;2023-08-24T03:16:40;87256.09;;;18.67;61.37
11678;BME280;5895;41.950;24.372;2023-08-24T03:19:07;87249.25;;;18.61;61.01
11678;BME280;5895;41.950;24.372;2023-08-24T03:21:34;87248.75;;;18.59;61.83
11678;BME280;5895;41.950;24.372;2023-08-24T03:24:01;87252.41;;;18.53;61.72
11678;BME280;5895;41.950;24.372;2023-08-24T03:26:31;87256.06;;;18.51;62.27
11678;BME280;5895;41.950;24.372;2023-08-24T03:28:58;87252.41;;;18.47;61.83
11678;BME280;5895;41.950;24.372;2023-08-24T03:31:25;87261.59;;;18.45;62.14
11678;BME280;5895;41.950;24.372;2023-08-24T03:33:52;87258.72;;;18.46;61.77
11678;BME280;5895;41.950;24.372;2023-08-24T03:36:20;87263.97;;;18.46;62.33
11678;BME280;5895;41.950;24.372;2023-08-24T03:38:47;87263.44;;;18.49;62.15
11678;BME280;5895;41.950;24.372;2023-08-24T03:41:14;87267.13;;;18.48;62.27
11678;BME280;5895;41.950;24.372;2023-08-24T03:43:42;87270.03;;;18.47;62.60
11678;BME280;5895;41.950;24.372;2023-08-24T03:46:10;87268.19;;;18.47;62.14
11678;BME280;5895;41.950;24.372;2023-08-24T03:48:37;87269.75;;;18.43;62.47
11678;BME280;5895;41.950;24.372;2023-08-24T03:51:04;87268.44;;;18.41;61.91
11678;BME280;5895;41.950;24.372;2023-08-24T03:53:31;87270.78;;;18.37;62.45
11678;BME280;5895;41.950;24.372;2023-08-24T03:55:58;87265.00;;;18.35;62.87
11678;BME280;5895;41.950;24.372;2023-08-24T03:58:25;87264.47;;;18.33;62.26
11678;BME280;5895;41.950;24.372;2023-08-24T04:00:54;87276.03;;;18.32;62.72
11678;BME280;5895;41.950;24.372;2023-08-24T04:03:21;87273.41;;;18.32;62.77
11678;BME280;5895;41.950;24.372;2023-08-24T04:05:48;87279.72;;;18.36;62.76
11678;BME280;5895;41.950;24.372;2023-08-24T04:08:15;87276.03;;;18.37;62.42
11678;BME280;5895;41.950;24.372;2023-08-24T04:10:43;87273.94;;;18.39;63.27
11678;BME280;5895;41.950;24.372;2023-08-24T04:13:10;87280.53;;;18.42;63.08
11678;BME280;5895;41.950;24.372;2023-08-24T04:15:37;87280.78;;;18.45;62.84
11678;BME280;5895;41.950;24.372;2023-08-24T04:18:06;87274.22;;;18.48;63.30
11678;BME280;5895;41.950;24.372;2023-08-24T04:20:33;87265.00;;;18.50;63.05
11678;BME280;5895;41.950;24.372;2023-08-24T04:23:02;87280.28;;;18.54;62.86
11678;BME280;5895;41.950;24.372;2023-08-24T04:25:29;87271.34;;;18.55;62.61
11678;BME280;5895;41.950;24.372;2023-08-24T04:27:56;87279.22;;;18.60;63.04
11678;BME280;5895;41.950;24.372;2023-08-24T04:30:23;87283.94;;;18.63;63.06
11678;BME280;5895;41.950;24.372;2023-08-24T04:32:50;87288.69;;;18.66;63.09
11678;BME280;5895;41.950;24.372;2023-08-24T04:35:19;87282.13;;;18.68;63.66
11678;BME280;5895;41.950;24.372;2023-08-24T04:37:46;87288.72;;;18.71;62.94
11678;BME280;5895;41.950;24.372;2023-08-24T04:40:13;87288.19;;;18.74;63.28
11678;BME280;5895;41.950;24.372;2023-08-24T04:42:40;87286.88;;;18.71;63.65
11678;BME280;5895;41.950;24.372;2023-08-24T04:45:08;87287.16;;;18.75;63.38
11678;BME280;5895;41.950;24.372;2023-08-24T04:47:35;87282.44;;;18.77;63.37
11678;BME280;5895;41.950;24.372;2023-08-24T04:50:02;87290.81;;;18.79;63.35
11678;BME280;5895;41.950;24.372;2023-08-24T04:52:32;87294.53;;;18.83;64.13
11678;BME280;5895;41.950;24.372;2023-08-24T04:55:00;87288.47;;;18.88;63.47
11678;BME280;5895;41.950;24.372;2023-08-24T04:57:28;87293.75;;;18.93;63.50
11678;BME280;5895;41.950;24.372;2023-08-24T04:59:55;87285.59;;;18.94;63.70
11678;BME280;5895;41.950;24.372;2023-08-24T05:02:22;87285.59;;;19.05;63.53
11678;BME280;5895;41.950;24.372;2023-08-24T05:04:49;87293.47;;;19.10;63.55
11678;BME280;5895;41.950;24.372;2023-08-24T05:07:16;87289.53;;;19.17;63.03
11678;BME280;5895;41.950;24.372;2023-08-24T05:09:45;87290.03;;;19.24;63.37
11678;BME280;5895;41.950;24.372;2023-08-24T05:12:12;87285.31;;;19.32;63.28
11678;BME280;5895;41.950;24.372;2023-08-24T05:14:40;87293.72;;;19.39;63.36
11678;BME280;5895;41.950;24.372;2023-08-24T05:17:07;87288.72;;;19.47;63.71
11678;BME280;5895;41.950;24.372;2023-08-24T05:19:34;87296.06;;;19.55;63.07
11678;BME280;5895;41.950;24.372;2023-08-24T05:22:01;87292.91;;;19.64;63.08
11678;BME280;5895;41.950;24.372;2023-08-24T05:24:28;87297.34;;;19.73;63.74
11678;BME280;5895;41.950;24.372;2023-08-24T05:26:57;87289.16;;;19.85;64.43
11678;BME280;5895;41.950;24.372;2023-08-24T05:29:24;87295.44;;;19.99;64.61
11678;BME280;5895;41.950;24.372;2023-08-24T05:31:51;87292.25;;;20.07;64.50
11678;BME280;5895;41.950;24.372;2023-08-24T05:34:18;87290.63;;;20.17;63.97
11678;BME280;5895;41.950;24.372;2023-08-24T05:36:45;87277.94;;;20.29;62.93
11678;BME280;5895;41.950;24.372;2023-08-24T05:39:12;87285.22;;;20.47;62.78
11678;BME280;5895;41.950;24.372;2023-08-24T05:41:40;87293.63;;;20.59;62.57
11678;BME280;5895;41.950;24.372;2023-08-24T05:44:08;87288.56;;;20.68;62.93
11678;BME280;5895;41.950;24.372;2023-08-24T05:46:35;87282.41;;;20.83;61.73
11678;BME280;5895;41.950;24.372;2023-08-24T05:49:02;87282.56;;;20.97;61.76
11678;BME280;5895;41.950;24.372;2023-08-24T05:51:30;87281.41;;;21.08;61.97
11678;BME280;5895;41.950;24.372;2023-08-24T05:53:57;87279.50;;;21.19;61.36
11678;BME280;5895;41.950;24.372;2023-08-24T05:56:24;87274.13;;;21.29;60.38
11678;BME280;5895;41.950;24.372;2023-08-24T05:58:51;87279.03;;;21.46;60.17
11678;BME280;5895;41.950;24.372;2023-08-24T06:01:20;87279.72;;;21.56;60.33
11678;BME280;5895;41.950;24.372;2023-08-24T06:03:47;87284.94;;;21.67;59.91
11678;BME280;5895;41.950;24.372;2023-08-24T06:06:15;87287.19;;;21.78;59.33
11678;BME280;5895;41.950;24.372;2023-08-24T06:08:42;87279.38;;;21.92;57.97
11678;BME280;5895;41.950;24.372;2023-08-24T06:11:10;87285.03;;;22.04;57.69
11678;BME280;5895;41.950;24.372;2023-08-24T06:13:37;87274.16;;;22.11;57.39
11678;BME280;5895;41.950;24.372;2023-08-24T06:16:04;87283.28;;;22.24;57.14
11678;BME280;5895;41.950;24.372;2023-08-24T06:18:33;87277.31;;;22.37;57.10
11678;BME280;5895;41.950;24.372;2023-08-24T06:21:00;87284.81;;;22.49;56.63
11678;BME280;5895;41.950;24.372;2023-08-24T06:23:27;87276.22;;;22.62;56.38
11678;BME280;5895;41.950;24.372;2023-08-24T06:25:54;87284.22;;;22.76;56.44
11678;BME280;5895;41.950;24.372;2023-08-24T06:28:21;87288.03;;;22.88;56.53
11678;BME280;5895;41.950;24.372;2023-08-24T06:30:48;87288.31;;;23.06;56.12
11678;BME280;5895;41.950;24.372;2023-08-24T06:33:17;87285.66;;;23.25;55.81
11678;BME280;5895;41.950;24.372;2023-08-24T06:35:45;87289.06;;;23.44;54.73
11678;BME280;5895;41.950;24.372;2023-08-24T06:38:13;87291.53;;;23.54;54.25
11678;BME280;5895;41.950;24.372;2023-08-24T06:40:40;87293.03;;;23.60;54.17
11678;BME280;5895;41.950;24.372;2023-08-24T06:43:07;87299.28;;;23.69;54.18
11678;BME280;5895;41.950;24.372;2023-08-24T06:45:34;87305.47;;;23.79;54.12
11678;BME280;5895;41.950;24.372;2023-08-24T06:48:01;87312.38;;;23.93;54.38
11678;BME280;5895;41.950;24.372;2023-08-24T06:50:29;87312.81;;;24.14;54.32
11678;BME280;5895;41.950;24.372;2023-08-24T06:52:58;87307.81;;;24.26;54.08
11678;BME280;5895;41.950;24.372;2023-08-24T06:55:27;87307.56;;;24.42;53.78
11678;BME280;5895;41.950;24.372;2023-08-24T06:57:54;87320.03;;;24.55;53.28
11678;BME280;5895;41.950;24.372;2023-08-24T07:00:22;87324.84;;;24.67;53.17
11678;BME280;5895;41.950;24.372;2023-08-24T07:02:50;87328.88;;;24.78;53.27
11678;BME280;5895;41.950;24.372;2023-08-24T07:05:18;87322.66;;;24.83;53.60
11678;BME280;5895;41.950;24.372;2023-08-24T07:07:45;87330.03;;;24.99;53.31
11678;BME280;5895;41.950;24.372;2023-08-24T07:10:14;87314.59;;;25.15;53.09
11678;BME280;5895;41.950;24.372;2023-08-24T07:12:41;87321.25;;;25.26;52.66
11678;BME280;5895;41.950;24.372;2023-08-24T07:15:10;87314.50;;;25.43;52.40
11678;BME280;5895;41.950;24.372;2023-08-24T07:17:38;87319.56;;;25.53;52.40
11678;BME280;5895;41.950;24.372;2023-08-24T07:20:06;87317.66;;;25.45;51.94
11678;BME280;5895;41.950;24.372;2023-08-24T07:22:34;87318.97;;;25.33;52.04
11678;BME280;5895;41.950;24.372;2023-08-24T07:25:01;87308.34;;;25.33;51.86
11678;BME280;5895;41.950;24.372;2023-08-24T07:27:32;87310.53;;;25.54;51.48
11678;BME280;5895;41.950;24.372;2023-08-24T07:29:59;87307.94;;;25.63;50.97
11678;BME280;5895;41.950;24.372;2023-08-24T07:32:26;87304.00;;;25.60;51.06
11678;BME280;5895;41.950;24.372;2023-08-24T07:34:54;87305.22;;;25.54;50.53
11678;BME280;5895;41.950;24.372;2023-08-24T07:37:22;87303.28;;;25.46;50.13
11678;BME280;5895;41.950;24.372;2023-08-24T07:39:49;87311.97;;;25.38;50.03
11678;BME280;5895;41.950;24.372;2023-08-24T07:42:20;87318.09;;;25.24;49.55
11678;BME280;5895;41.950;24.372;2023-08-24T07:44:49;87323.66;;;25.14;49.99
11678;BME280;5895;41.950;24.372;2023-08-24T07:47:16;87321.16;;;25.04;50.54
11678;BME280;5895;41.950;24.372;2023-08-24T07:49:43;87318.72;;;24.94;50.58
11678;BME280;5895;41.950;24.372;2023-08-24T07:52:11;87322.06;;;24.86;51.04
11678;BME280;5895;41.950;24.372;2023-08-24T07:54:38;87327.59;;;24.75;51.51
11678;BME280;5895;41.950;24.372;2023-08-24T07:57:06;87330.94;;;24.67;51.68
11678;BME280;5895;41.950;24.372;2023-08-24T07:59:33;87336.81;;;24.50;52.14
11678;BME280;5895;41.950;24.372;2023-08-24T08:02:02;87358.06;;;24.37;52.38
11678;BME280;5895;41.950;24.372;2023-08-24T08:21:01;87364.44;;;23.14;57.49
11678;BME280;5895;41.950;24.372;2023-08-24T08:23:29;87374.50;;;22.93;57.75
11678;BME280;5895;41.950;24.372;2023-08-24T08:25:56;87374.72;;;22.73;58.60
11678;BME280;5895;41.950;24.372;2023-08-24T08:28:23;87400.84;;;22.31;60.60
11678;BME280;5895;41.950;24.372;2023-08-24T08:30:50;87394.34;;;21.89;62.50
11678;BME280;5895;41.950;24.372;2023-08-24T08:33:17;87425.53;;;21.48;62.60
11678;BME280;5895;41.950;24.372;2023-08-24T08:35:46;87388.44;;;21.24;59.61
11678;BME280;5895;41.950;24.372;2023-08-24T08:38:14;87380.44;;;20.95;62.73
11678;BME280;5895;41.950;24.372;2023-08-24T08:51:31;87364.53;;;20.61;73.92
11678;BME280;5895;41.950;24.372;2023-08-24T08:53:58;87383.06;;;20.35;73.38
11678;BME280;5895;41.950;24.372;2023-08-24T08:56:26;87375.41;;;20.34;73.97
11678;BME280;5895;41.950;24.372;2023-08-24T08:58:54;87370.19;;;20.24;74.23
11678;BME280;5895;41.950;24.372;2023-08-24T09:01:22;87370.19;;;20.24;74.51
11678;BME280;5895;41.950;24.372;2023-08-24T09:03:51;87370.44;;;20.27;75.25
11678;BME280;5895;41.950;24.372;2023-08-24T09:06:19;87370.66;;;20.31;75.68
11678;BME280;5895;41.950;24.372;2023-08-24T09:08:48;87367.22;;;20.35;76.59
11678;BME280;5895;41.950;24.372;2023-08-24T09:11:16;87367.00;;;20.37;76.24
11678;BME280;5895;41.950;24.372;2023-08-24T09:13:44;87370.63;;;20.51;77.16
11678;BME280;5895;41.950;24.372;2023-08-24T09:16:11;87361.09;;;20.66;76.71
11678;BME280;5895;41.950;24.372;2023-08-24T09:18:43;87366.81;;;20.83;78.21
11678;BME280;5895;41.950;24.372;2023-08-24T09:21:12;87357.97;;;21.03;75.86
11678;BME280;5895;41.950;24.372;2023-08-24T09:23:43;87355.97;;;21.29;77.73
11678;BME280;5895;41.950;24.372;2023-08-24T09:26:12;87352.63;;;21.52;74.64
11678;BME280;5895;41.950;24.372;2023-08-24T09:28:42;87348.09;;;21.87;74.80
11678;BME280;5895;41.950;24.372;2023-08-24T09:31:08;87344.88;;;22.24;71.84
11678;BME280;5895;41.950;24.372;2023-08-24T09:33:36;87335.59;;;22.51;72.04
11678;BME280;5895;41.950;24.372;2023-08-24T09:36:06;87337.97;;;22.71;69.80
11678;BME280;5895;41.950;24.372;2023-08-24T09:38:33;87338.31;;;22.88;68.40
11678;BME280;5895;41.950;24.372;2023-08-24T09:41:02;87337.59;;;23.20;66.84
11678;BME280;5895;41.950;24.372;2023-08-24T09:43:31;87328.78;;;23.44;67.09
11678;BME280;5895;41.950;24.372;2023-08-24T09:45:58;87326.84;;;23.68;67.60
11678;BME280;5895;41.950;24.372;2023-08-24T09:48:26;87327.09;;;23.86;65.52
11678;BME280;5895;41.950;24.372;2023-08-24T09:50:53;87321.16;;;24.08;66.09
11678;BME280;5895;41.950;24.372;2023-08-24T09:53:22;87311.41;;;24.36;65.48
11678;BME280;5895;41.950;24.372;2023-08-24T09:55:54;87310.50;;;24.54;67.54
11678;BME280;5895;41.950;24.372;2023-08-24T09:58:22;87310.50;;;24.82;65.19
11678;BME280;5895;41.950;24.372;2023-08-24T10:00:51;87309.47;;;25.05;64.27
11678;BME280;5895;41.950;24.372;2023-08-24T10:03:19;87301.19;;;25.20;61.91
11678;BME280;5895;41.950;24.372;2023-08-24T10:05:51;87298.78;;;25.32;59.02
11678;BME280;5895;41.950;24.372;2023-08-24T10:08:21;87294.63;;;25.40;59.73
11678;BME280;5895;41.950;24.372;2023-08-24T10:10:53;87300.25;;;25.61;61.40
11678;BME280;5895;41.950;24.372;2023-08-24T10:13:33;87294.34;;;25.87;60.23
11678;BME280;5895;41.950;24.372;2023-08-24T10:16:05;87289.38;;;26.16;60.46
11678;BME280;5895;41.950;24.372;2023-08-24T10:18:36;87294.03;;;26.42;58.00
11678;BME280;5895;41.950;24.372;2023-08-24T10:21:04;87296.63;;;26.64;55.80
11678;BME280;5895;41.950;24.372;2023-08-24T10:23:31;87289.06;;;26.88;55.61
11678;BME280;5895;41.950;24.372;2023-08-24T10:26:02;87293.34;;;27.15;56.17
11678;BME280;5895;41.950;24.372;2023-08-24T10:28:29;87293.38;;;27.41;54.51
11678;BME280;5895;41.950;24.372;2023-08-24T10:30:59;87290.72;;;27.59;54.79
11678;BME280;5895;41.950;24.372;2023-08-24T10:33:28;87279.56;;;27.65;53.97
11678;BME280;5895;41.950;24.372;2023-08-24T10:35:56;87291.38;;;27.73;54.22
11678;BME280;5895;41.950;24.372;2023-08-24T10:38:27;87279.13;;;27.63;54.99
11678;BME280;5895;41.950;24.372;2023-08-24T10:40:55;87282.09;;;27.53;54.85
11678;BME280;5895;41.950;24.372;2023-08-24T10:43:28;87277.84;;;27.43;54.82
11678;BME280;5895;41.950;24.372;2023-08-24T10:45:58;87279.91;;;27.29;54.69
11678;BME280;5895;41.950;24.372;2023-08-24T10:48:29;87276.91;;;27.22;54.20
11678;BME280;5895;41.950;24.372;2023-08-24T10:51:22;87279.81;;;27.03;52.28
11678;BME280;5895;41.950;24.372;2023-08-24T10:53:52;87273.41;;;26.96;55.80
11678;BME280;5895;41.950;24.372;2023-08-24T10:56:20;87276.03;;;26.87;55.65
11678;BME280;5895;41.950;24.372;2023-08-24T10:58:47;87265.22;;;26.83;55.66
11678;BME280;5895;41.950;24.372;2023-08-24T11:01:38;87270.41;;;26.88;55.17
11678;BME280;5895;41.950;24.372;2023-08-24T11:04:07;87267.16;;;27.09;55.40
11678;BME280;5895;41.950;24.372;2023-08-24T11:06:50;87258.56;;;27.47;54.16
11678;BME280;5895;41.950;24.372;2023-08-24T11:09:17;87258.25;;;27.91;53.13
11678;BME280;5895;41.950;24.372;2023-08-24T11:11:55;87244.19;;;28.29;50.09
11678;BME280;5895;41.950;24.372;2023-08-24T11:14:23;87253.06;;;28.59;50.12
11678;BME280;5895;41.950;24.372;2023-08-24T11:16:52;87248.88;;;28.79;49.16
11678;BME280;5895;41.950;24.372;2023-08-24T11:19:22;87239.50;;;29.03;49.54
11678;BME280;5895;41.950;24.372;2023-08-24T11:21:49;87247.53;;;29.23;49.10
11678;BME280;5895;41.950;24.372;2023-08-24T11:24:18;87238.88;;;29.47;48.14
11678;BME280;5895;41.950;24.372;2023-08-24T11:26:45;87231.19;;;29.67;47.92
11678;BME280;5895;41.950;24.372;2023-08-24T11:29:13;87235.63;;;29.84;47.24
11678;BME280;5895;41.950;24.372;2023-08-24T11:31:41;87238.47;;;29.99;47.13
11678;BME280;5895;41.950;24.372;2023-08-24T11:34:08;87238.06;;;30.10;47.31
11678;BME280;5895;41.950;24.372;2023-08-24T11:36:43;87230.53;;;30.24;44.22
11678;BME280;5895;41.950;24.372;2023-08-24T11:39:17;87226.78;;;30.37;43.46
11678;BME280;5895;41.950;24.372;2023-08-24T11:41:57;87224.22;;;30.53;42.98
11678;BME280;5895;41.950;24.372;2023-08-24T11:44:24;87220.53;;;30.58;45.19
11678;BME280;5895;41.950;24.372;2023-08-24T11:46:51;87221.84;;;30.27;45.45
11678;BME280;5895;41.950;24.372;2023-08-24T11:49:18;87209.34;;;30.31;45.95
11678;BME280;5895;41.950;24.372;2023-08-24T11:51:47;87210.91;;;30.32;45.68
11678;BME280;5895;41.950;24.372;2023-08-24T11:54:16;87211.03;;;30.36;45.24
11678;BME280;5895;41.950;24.372;2023-08-24T11:56:44;87205.13;;;30.42;45.96
11678;BME280;5895;41.950;24.372;2023-08-24T11:59:12;87201.78;;;30.58;46.68
11678;BME280;5895;41.950;24.372;2023-08-24T12:01:40;87199.09;;;30.58;45.78
11678;BME280;5895;41.950;24.372;2023-08-24T12:04:08;87199.78;;;30.67;45.59
11678;BME280;5895;41.950;24.372;2023-08-24T12:06:35;87200.72;;;30.71;44.98
11678;BME280;5895;41.950;24.372;2023-08-24T12:09:04;87202.13;;;30.56;43.40
11678;BME280;5895;41.950;24.372;2023-08-24T12:11:35;87200.44;;;30.51;45.17
11678;BME280;5895;41.950;24.372;2023-08-24T12:14:02;87190.16;;;30.41;45.42
11678;BME280;5895;41.950;24.372;2023-08-24T12:16:32;87179.22;;;30.34;45.01
11678;BME280;5895;41.950;24.372;2023-08-24T12:19:00;87178.56;;;30.37;45.12
11678;BME280;5895;41.950;24.372;2023-08-24T12:21:29;87183.47;;;30.35;45.67
11678;BME280;5895;41.950;24.372;2023-08-24T12:23:58;87172.53;;;30.40;45.37
11678;BME280;5895;41.950;24.372;2023-08-24T12:26:27;87178.72;;;30.53;45.03
11678;BME280;5895;41.950;24.372;2023-08-24T12:29:00;87174.72;;;30.71;42.08
11678;BME280;5895;41.950;24.372;2023-08-24T12:31:29;87173.13;;;30.83;45.00
11678;BME280;5895;41.950;24.372;2023-08-24T12:34:00;87164.56;;;30.77;42.22
11678;BME280;5895;41.950;24.372;2023-08-24T12:36:29;87160.53;;;30.83;45.44
11678;BME280;5895;41.950;24.372;2023-08-24T12:38:56;87154.81;;;30.85;45.34
11678;BME280;5895;41.950;24.372;2023-08-24T12:41:24;87157.59;;;31.00;45.06
11678;BME280;5895;41.950;24.372;2023-08-24T12:43:53;87155.03;;;30.92;44.74
11678;BME280;5895;41.950;24.372;2023-08-24T12:46:20;87151.34;;;30.96;44.99
11678;BME280;5895;41.950;24.372;2023-08-24T12:48:47;87151.81;;;30.98;44.98
11678;BME280;5895;41.950;24.372;2023-08-24T12:51:14;87147.78;;;31.04;44.36
11678;BME280;5895;41.950;24.372;2023-08-24T12:53:41;87147.31;;;31.02;44.94
11678;BME280;5895;41.950;24.372;2023-08-24T12:56:08;87152.16;;;30.72;44.82
11678;BME280;5895;41.950;24.372;2023-08-24T12:58:36;87152.56;;;30.62;45.31
11678;BME280;5895;41.950;24.372;2023-08-24T13:01:05;87148.13;;;30.66;45.05
11678;BME280;5895;41.950;24.372;2023-08-24T13:03:33;87159.81;;;30.62;45.15
11678;BME280;5895;41.950;24.372;2023-08-24T13:06:01;87151.66;;;30.58;45.06
11678;BME280;5895;41.950;24.372;2023-08-24T13:08:30;87156.47;;;30.52;44.89
11678;BME280;5895;41.950;24.372;2023-08-24T13:10:57;87157.81;;;30.34;44.73
11678;BME280;5895;41.950;24.372;2023-08-24T13:13:24;87153.53;;;30.09;45.25
11678;BME280;5895;41.950;24.372;2023-08-24T13:15:51;87162.06;;;30.02;44.75
11678;BME280;5895;41.950;24.372;2023-08-24T13:18:20;87157.28;;;29.95;44.77
11678;BME280;5895;41.950;24.372;2023-08-24T13:20:47;87161.97;;;29.98;45.04
11678;BME280;5895;41.950;24.372;2023-08-24T13:23:14;87153.47;;;29.96;45.01
11678;BME280;5895;41.950;24.372;2023-08-24T13:25:41;87155.50;;;29.99;45.07
11678;BME280;5895;41.950;24.372;2023-08-24T13:28:08;87144.38;;;29.97;44.61
11678;BME280;5895;41.950;24.372;2023-08-24T13:30:35;87140.66;;;30.02;44.23
11678;BME280;5895;41.950;24.372;2023-08-24T13:33:03;87148.03;;;29.93;44.95
11678;BME280;5895;41.950;24.372;2023-08-24T13:35:32;87149.81;;;30.01;45.07
11678;BME280;5895;41.950;24.372;2023-08-24T13:37:59;87148.63;;;30.11;44.44